sensor_id;sensor_type;location;lat;lon;timestamp;P1;durP1;ratioP1;P2;durP2;ratioP2
34725;SDS011;20951;50.818;4.344;2023-01-04T00:01:02;7.93;;;2.75;;
34725;SDS011;20951;50.818;4.344;2023-01-04T00:03:31;7.03;;;2.80;;
34725;SDS011;20951;50.818;4.344;2023-01-04T00:05:58;7.57;;;2.20;;
34725;SDS011;20951;50.818;4.344;2023-01-04T00:08:25;8.10;;;2.45;;
34725;SDS011;20951;50.818;4.344;2023-01-04T00:10:51;6.28;;;2.20;;
34725;SDS011;20951;50.818;4.344;2023-01-04T00:13:17;6.88;;;2.20;;
34725;SDS011;20951;50.818;4.344;2023-01-04T00:15:43;8.20;;;1.98;;
34725;SDS011;20951;50.818;4.344;2023-01-04T00:18:09;8.93;;;2.63;;
34725;SDS011;20951;50.818;4.344;2023-01-04T00:20:34;6.05;;;2.45;;
34725;SDS011;20951;50.818;4.344;2023-01-04T00:23:03;6.45;;;2.00;;
34725;SDS011;20951;50.818;4.344;2023-01-04T00:25:29;4.97;;;1.75;;
34725;SDS011;20951;50.818;4.344;2023-01-04T00:27:55;7.00;;;2.08;;
34725;SDS011;20951;50.818;4.344;2023-01-04T00:30:20;7.35;;;2.08;;
34725;SDS011;20951;50.818;4.344;2023-01-04T00:32:47;4.95;;;1.70;;
34725;SDS011;20951;50.818;4.344;2023-01-04T00:35:15;5.40;;;2.00;;
34725;SDS011;20951;50.818;4.344;2023-01-04T00:37:41;5.00;;;1.75;;
34725;SDS011;20951;50.818;4.344;2023-01-04T00:40:08;7.97;;;2.13;;
34725;SDS011;20951;50.818;4.344;2023-01-04T00:42:35;5.00;;;1.73;;
34725;SDS011;20951;50.818;4.344;2023-01-04T00:45:00;6.38;;;1.98;;
34725;SDS011;20951;50.818;4.344;2023-01-04T00:47:26;5.32;;;2.45;;
34725;SDS011;20951;50.818;4.344;2023-01-04T00:49:52;6.35;;;1.83;;
34725;SDS011;20951;50.818;4.344;2023-01-04T00:52:18;6.03;;;2.25;;
34725;SDS011;20951;50.818;4.344;2023-01-04T00:54:44;8.13;;;2.13;;
34725;SDS011;20951;50.818;4.344;2023-01-04T00:57:10;6.75;;;2.30;;
34725;SDS011;20951;50.818;4.344;2023-01-04T00:59:36;5.28;;;2.50;;
34725;SDS011;20951;50.818;4.344;2023-01-04T01:02:02;6.10;;;2.50;;
34725;SDS011;20951;50.818;4.344;2023-01-04T01:04:27;5.18;;;2.30;;
34725;SDS011;20951;50.818;4.344;2023-01-04T01:06:53;3.92;;;2.20;;
34725;SDS011;20951;50.818;4.344;2023-01-04T01:09:19;7.45;;;2.47;;
34725;SDS011;20951;50.818;4.344;2023-01-04T01:11:49;5.13;;;2.30;;
34725;SDS011;20951;50.818;4.344;2023-01-04T01:14:17;4.75;;;2.20;;
34725;SDS011;20951;50.818;4.344;2023-01-04T01:16:45;5.65;;;2.42;;
34725;SDS011;20951;50.818;4.344;2023-01-04T01:19:11;4.70;;;2.55;;
34725;SDS011;20951;50.818;4.344;2023-01-04T01:21:37;5.55;;;1.92;;
34725;SDS011;20951;50.818;4.344;2023-01-04T01:24:08;5.28;;;2.17;;
34725;SDS011;20951;50.818;4.344;2023-01-04T01:26:42;6.30;;;2.75;;
34725;SDS011;20951;50.818;4.344;2023-01-04T01:29:08;5.18;;;2.50;;
34725;SDS011;20951;50.818;4.344;2023-01-04T01:31:38;6.20;;;3.00;;
34725;SDS011;20951;50.818;4.344;2023-01-04T01:34:05;5.22;;;2.58;;
34725;SDS011;20951;50.818;4.344;2023-01-04T01:36:31;7.05;;;2.65;;
34725;SDS011;20951;50.818;4.344;2023-01-04T01:38:57;5.07;;;2.40;;
34725;SDS011;20951;50.818;4.344;2023-01-04T01:41:24;5.05;;;2.50;;
34725;SDS011;20951;50.818;4.344;2023-01-04T01:44:03;5.25;;;2.90;;
34725;SDS011;20951;50.818;4.344;2023-01-04T01:46:49;7.50;;;2.97;;
34725;SDS011;20951;50.818;4.344;2023-01-04T01:51:55;5.15;;;2.85;;
34725;SDS011;20951;50.818;4.344;2023-01-04T01:54:27;5.82;;;3.63;;
34725;SDS011;20951;50.818;4.344;2023-01-04T01:56:57;8.35;;;3.70;;
34725;SDS011;20951;50.818;4.344;2023-01-04T01:59:26;6.30;;;3.67;;
34725;SDS011;20951;50.818;4.344;2023-01-04T02:01:53;7.50;;;3.50;;
34725;SDS011;20951;50.818;4.344;2023-01-04T02:04:18;5.75;;;3.33;;
34725;SDS011;20951;50.818;4.344;2023-01-04T02:06:50;10.55;;;3.80;;
34725;SDS011;20951;50.818;4.344;2023-01-04T02:09:21;8.15;;;3.47;;
34725;SDS011;20951;50.818;4.344;2023-01-04T02:11:47;9.95;;;4.00;;
34725;SDS011;20951;50.818;4.344;2023-01-04T02:14:13;5.72;;;3.40;;
34725;SDS011;20951;50.818;4.344;2023-01-04T02:26:16;10.40;;;3.88;;
34725;SDS011;20951;50.818;4.344;2023-01-04T02:36:22;8.75;;;3.65;;
34725;SDS011;20951;50.818;4.344;2023-01-04T02:44:48;8.77;;;3.75;;
34725;SDS011;20951;50.818;4.344;2023-01-04T02:47:23;8.20;;;3.40;;
34725;SDS011;20951;50.818;4.344;2023-01-04T02:50:33;9.38;;;4.05;;
34725;SDS011;20951;50.818;4.344;2023-01-04T02:53:11;9.75;;;3.88;;
34725;SDS011;20951;50.818;4.344;2023-01-04T03:01:32;9.48;;;3.90;;
34725;SDS011;20951;50.818;4.344;2023-01-04T03:07:26;10.35;;;3.60;;
34725;SDS011;20951;50.818;4.344;2023-01-04T03:10:08;11.50;;;3.78;;
34725;SDS011;20951;50.818;4.344;2023-01-04T03:12:56;7.88;;;3.17;;
34725;SDS011;20951;50.818;4.344;2023-01-04T03:15:32;10.30;;;3.10;;
34725;SDS011;20951;50.818;4.344;2023-01-04T03:18:06;9.10;;;3.40;;
34725;SDS011;20951;50.818;4.344;2023-01-04T03:20:42;7.28;;;2.90;;
34725;SDS011;20951;50.818;4.344;2023-01-04T03:23:14;7.40;;;3.03;;
34725;SDS011;20951;50.818;4.344;2023-01-04T03:26:02;7.35;;;2.88;;
34725;SDS011;20951;50.818;4.344;2023-01-04T03:28:54;9.27;;;3.13;;
34725;SDS011;20951;50.818;4.344;2023-01-04T03:31:46;9.48;;;3.15;;
34725;SDS011;20951;50.818;4.344;2023-01-04T03:34:38;9.20;;;3.35;;
34725;SDS011;20951;50.818;4.344;2023-01-04T03:43:04;6.60;;;2.40;;
34725;SDS011;20951;50.818;4.344;2023-01-04T03:45:57;6.38;;;2.10;;
34725;SDS011;20951;50.818;4.344;2023-01-04T03:51:42;6.07;;;2.35;;
34725;SDS011;20951;50.818;4.344;2023-01-04T03:54:13;5.88;;;2.40;;
34725;SDS011;20951;50.818;4.344;2023-01-04T03:56:45;8.20;;;2.28;;
34725;SDS011;20951;50.818;4.344;2023-01-04T03:59:11;5.30;;;2.22;;
34725;SDS011;20951;50.818;4.344;2023-01-04T04:01:37;7.90;;;2.38;;
34725;SDS011;20951;50.818;4.344;2023-01-04T04:04:05;6.47;;;2.20;;
34725;SDS011;20951;50.818;4.344;2023-01-04T04:06:49;6.60;;;2.20;;
34725;SDS011;20951;50.818;4.344;2023-01-04T04:09:34;7.28;;;2.03;;
34725;SDS011;20951;50.818;4.344;2023-01-04T04:11:59;5.95;;;2.40;;
34725;SDS011;20951;50.818;4.344;2023-01-04T04:14:28;7.15;;;2.20;;
34725;SDS011;20951;50.818;4.344;2023-01-04T04:16:54;8.52;;;2.15;;
34725;SDS011;20951;50.818;4.344;2023-01-04T04:19:20;9.20;;;2.53;;
34725;SDS011;20951;50.818;4.344;2023-01-04T04:21:46;6.22;;;1.85;;
34725;SDS011;20951;50.818;4.344;2023-01-04T04:24:16;4.90;;;1.95;;
34725;SDS011;20951;50.818;4.344;2023-01-04T04:26:48;5.60;;;2.00;;
34725;SDS011;20951;50.818;4.344;2023-01-04T04:29:14;5.97;;;2.00;;
34725;SDS011;20951;50.818;4.344;2023-01-04T04:31:40;5.50;;;1.50;;
34725;SDS011;20951;50.818;4.344;2023-01-04T04:34:06;6.30;;;1.83;;
34725;SDS011;20951;50.818;4.344;2023-01-04T04:36:31;5.50;;;1.50;;
34725;SDS011;20951;50.818;4.344;2023-01-04T04:38:57;4.55;;;1.63;;
34725;SDS011;20951;50.818;4.344;2023-01-04T04:41:23;4.70;;;1.48;;
34725;SDS011;20951;50.818;4.344;2023-01-04T04:46:40;4.43;;;1.63;;
34725;SDS011;20951;50.818;4.344;2023-01-04T04:49:07;3.90;;;1.63;;
34725;SDS011;20951;50.818;4.344;2023-01-04T04:51:33;4.78;;;1.50;;
34725;SDS011;20951;50.818;4.344;2023-01-04T04:54:00;4.00;;;1.35;;
34725;SDS011;20951;50.818;4.344;2023-01-04T04:56:26;5.25;;;1.58;;
34725;SDS011;20951;50.818;4.344;2023-01-04T04:58:52;4.22;;;1.50;;
34725;SDS011;20951;50.818;4.344;2023-01-04T05:01:18;3.60;;;1.10;;
34725;SDS011;20951;50.818;4.344;2023-01-04T05:03:44;3.65;;;1.17;;
34725;SDS011;20951;50.818;4.344;2023-01-04T05:06:10;5.13;;;1.25;;
34725;SDS011;20951;50.818;4.344;2023-01-04T05:08:36;4.80;;;1.85;;
34725;SDS011;20951;50.818;4.344;2023-01-04T05:11:07;5.65;;;1.63;;
34725;SDS011;20951;50.818;4.344;2023-01-04T05:13:34;7.72;;;1.73;;
34725;SDS011;20951;50.818;4.344;2023-01-04T05:16:01;4.82;;;1.40;;
34725;SDS011;20951;50.818;4.344;2023-01-04T05:18:28;4.72;;;1.20;;
34725;SDS011;20951;50.818;4.344;2023-01-04T05:20:54;3.67;;;1.20;;
34725;SDS011;20951;50.818;4.344;2023-01-04T05:23:22;6.03;;;1.40;;
34725;SDS011;20951;50.818;4.344;2023-01-04T05:25:55;3.90;;;1.40;;
34725;SDS011;20951;50.818;4.344;2023-01-04T05:28:23;5.35;;;1.10;;
34725;SDS011;20951;50.818;4.344;2023-01-04T05:30:49;4.82;;;1.10;;
34725;SDS011;20951;50.818;4.344;2023-01-04T05:33:22;3.35;;;1.20;;
34725;SDS011;20951;50.818;4.344;2023-01-04T05:35:49;4.40;;;1.20;;
34725;SDS011;20951;50.818;4.344;2023-01-04T05:38:16;3.55;;;1.10;;
34725;SDS011;20951;50.818;4.344;2023-01-04T05:40:42;3.80;;;1.10;;
34725;SDS011;20951;50.818;4.344;2023-01-04T05:43:08;4.28;;;1.20;;
34725;SDS011;20951;50.818;4.344;2023-01-04T05:45:34;5.07;;;1.17;;
34725;SDS011;20951;50.818;4.344;2023-01-04T05:48:00;5.45;;;1.40;;
34725;SDS011;20951;50.818;4.344;2023-01-04T05:50:26;4.13;;;1.25;;
34725;SDS011;20951;50.818;4.344;2023-01-04T05:52:52;3.60;;;1.00;;
34725;SDS011;20951;50.818;4.344;2023-01-04T05:55:18;6.65;;;1.10;;
34725;SDS011;20951;50.818;4.344;2023-01-04T05:57:44;3.33;;;1.00;;
34725;SDS011;20951;50.818;4.344;2023-01-04T06:00:10;2.65;;;1.00;;
34725;SDS011;20951;50.818;4.344;2023-01-04T06:02:37;5.00;;;1.10;;
34725;SDS011;20951;50.818;4.344;2023-01-04T06:05:03;3.13;;;1.00;;
34725;SDS011;20951;50.818;4.344;2023-01-04T06:07:29;4.45;;;0.90;;
34725;SDS011;20951;50.818;4.344;2023-01-04T06:09:57;2.67;;;0.80;;
34725;SDS011;20951;50.818;4.344;2023-01-04T06:12:22;3.88;;;1.17;;
34725;SDS011;20951;50.818;4.344;2023-01-04T06:14:49;3.75;;;1.02;;
34725;SDS011;20951;50.818;4.344;2023-01-04T06:17:15;5.18;;;1.30;;
34725;SDS011;20951;50.818;4.344;2023-01-04T06:19:41;3.72;;;1.42;;
34725;SDS011;20951;50.818;4.344;2023-01-04T06:22:07;4.05;;;1.30;;
34725;SDS011;20951;50.818;4.344;2023-01-04T06:24:33;4.15;;;1.30;;
34725;SDS011;20951;50.818;4.344;2023-01-04T06:26:59;4.32;;;1.13;;
34725;SDS011;20951;50.818;4.344;2023-01-04T06:29:25;5.65;;;1.50;;
34725;SDS011;20951;50.818;4.344;2023-01-04T06:31:51;4.18;;;1.30;;
34725;SDS011;20951;50.818;4.344;2023-01-04T06:34:17;7.05;;;1.45;;
34725;SDS011;20951;50.818;4.344;2023-01-04T06:36:43;4.03;;;1.25;;
34725;SDS011;20951;50.818;4.344;2023-01-04T06:39:11;3.65;;;1.58;;
34725;SDS011;20951;50.818;4.344;2023-01-04T06:41:37;7.50;;;1.70;;
34725;SDS011;20951;50.818;4.344;2023-01-04T06:44:04;4.55;;;1.30;;
34725;SDS011;20951;50.818;4.344;2023-01-04T06:46:30;5.38;;;1.35;;
34725;SDS011;20951;50.818;4.344;2023-01-04T06:48:56;4.78;;;1.10;;
34725;SDS011;20951;50.818;4.344;2023-01-04T06:51:22;2.95;;;1.30;;
34725;SDS011;20951;50.818;4.344;2023-01-04T06:53:48;3.47;;;1.40;;
34725;SDS011;20951;50.818;4.344;2023-01-04T06:56:14;5.32;;;1.60;;
34725;SDS011;20951;50.818;4.344;2023-01-04T06:58:40;5.60;;;1.90;;
34725;SDS011;20951;50.818;4.344;2023-01-04T07:01:09;7.55;;;2.30;;
34725;SDS011;20951;50.818;4.344;2023-01-04T07:03:35;14.68;;;4.78;;
34725;SDS011;20951;50.818;4.344;2023-01-04T07:06:04;6.40;;;2.17;;
34725;SDS011;20951;50.818;4.344;2023-01-04T07:08:31;4.60;;;1.50;;
34725;SDS011;20951;50.818;4.344;2023-01-04T07:10:57;5.97;;;1.33;;
34725;SDS011;20951;50.818;4.344;2023-01-04T07:13:23;5.55;;;1.23;;
34725;SDS011;20951;50.818;4.344;2023-01-04T07:15:49;5.88;;;1.45;;
34725;SDS011;20951;50.818;4.344;2023-01-04T07:18:14;4.20;;;1.27;;
34725;SDS011;20951;50.818;4.344;2023-01-04T07:20:40;4.45;;;1.13;;
34725;SDS011;20951;50.818;4.344;2023-01-04T07:23:07;3.88;;;1.08;;
34725;SDS011;20951;50.818;4.344;2023-01-04T07:25:33;6.38;;;1.70;;
34725;SDS011;20951;50.818;4.344;2023-01-04T07:27:59;6.07;;;1.20;;
34725;SDS011;20951;50.818;4.344;2023-01-04T07:30:28;4.20;;;1.35;;
34725;SDS011;20951;50.818;4.344;2023-01-04T07:32:54;4.45;;;1.20;;
34725;SDS011;20951;50.818;4.344;2023-01-04T07:35:20;1.85;;;0.93;;
34725;SDS011;20951;50.818;4.344;2023-01-04T07:37:46;3.38;;;0.93;;
34725;SDS011;20951;50.818;4.344;2023-01-04T07:40:15;4.07;;;1.20;;
34725;SDS011;20951;50.818;4.344;2023-01-04T07:42:46;2.33;;;0.80;;
34725;SDS011;20951;50.818;4.344;2023-01-04T07:45:20;3.60;;;1.33;;
34725;SDS011;20951;50.818;4.344;2023-01-04T07:47:49;7.97;;;1.10;;
34725;SDS011;20951;50.818;4.344;2023-01-04T07:50:18;5.20;;;1.10;;
34725;SDS011;20951;50.818;4.344;2023-01-04T07:52:44;4.30;;;0.93;;
34725;SDS011;20951;50.818;4.344;2023-01-04T07:55:12;5.78;;;1.00;;
34725;SDS011;20951;50.818;4.344;2023-01-04T07:57:38;3.03;;;1.10;;
34725;SDS011;20951;50.818;4.344;2023-01-04T08:00:04;5.20;;;1.30;;
34725;SDS011;20951;50.818;4.344;2023-01-04T08:02:30;10.75;;;3.63;;
34725;SDS011;20951;50.818;4.344;2023-01-04T08:04:55;6.88;;;1.80;;
34725;SDS011;20951;50.818;4.344;2023-01-04T08:07:22;5.38;;;1.63;;
34725;SDS011;20951;50.818;4.344;2023-01-04T08:09:48;5.30;;;1.77;;
34725;SDS011;20951;50.818;4.344;2023-01-04T08:12:14;80.18;;;52.45;;
34725;SDS011;20951;50.818;4.344;2023-01-04T08:14:40;5.13;;;1.48;;
34725;SDS011;20951;50.818;4.344;2023-01-04T08:17:06;4.82;;;1.48;;
34725;SDS011;20951;50.818;4.344;2023-01-04T08:19:31;5.30;;;1.40;;
34725;SDS011;20951;50.818;4.344;2023-01-04T08:21:57;4.28;;;1.33;;
34725;SDS011;20951;50.818;4.344;2023-01-04T08:24:23;3.53;;;1.25;;
34725;SDS011;20951;50.818;4.344;2023-01-04T08:26:49;4.75;;;1.05;;
34725;SDS011;20951;50.818;4.344;2023-01-04T08:29:14;4.95;;;1.33;;
34725;SDS011;20951;50.818;4.344;2023-01-04T08:31:45;3.70;;;1.00;;
34725;SDS011;20951;50.818;4.344;2023-01-04T08:34:11;6.97;;;1.30;;
34725;SDS011;20951;50.818;4.344;2023-01-04T08:36:44;3.80;;;1.20;;
34725;SDS011;20951;50.818;4.344;2023-01-04T08:39:12;3.83;;;1.10;;
34725;SDS011;20951;50.818;4.344;2023-01-04T08:41:38;6.45;;;1.05;;
34725;SDS011;20951;50.818;4.344;2023-01-04T08:44:25;58.90;;;33.05;;
34725;SDS011;20951;50.818;4.344;2023-01-04T08:46:51;7.53;;;1.50;;
34725;SDS011;20951;50.818;4.344;2023-01-04T08:49:17;5.35;;;1.13;;
34725;SDS011;20951;50.818;4.344;2023-01-04T08:51:44;7.70;;;1.38;;
34725;SDS011;20951;50.818;4.344;2023-01-04T08:54:13;8.50;;;1.70;;
34725;SDS011;20951;50.818;4.344;2023-01-04T08:56:41;5.82;;;1.38;;
34725;SDS011;20951;50.818;4.344;2023-01-04T08:59:08;6.55;;;1.40;;
34725;SDS011;20951;50.818;4.344;2023-01-04T09:01:35;6.18;;;1.20;;
34725;SDS011;20951;50.818;4.344;2023-01-04T09:04:01;6.40;;;1.50;;
34725;SDS011;20951;50.818;4.344;2023-01-04T09:06:27;4.68;;;1.08;;
34725;SDS011;20951;50.818;4.344;2023-01-04T09:08:54;6.00;;;1.52;;
34725;SDS011;20951;50.818;4.344;2023-01-04T09:11:21;5.45;;;1.00;;
34725;SDS011;20951;50.818;4.344;2023-01-04T09:13:47;4.00;;;0.95;;
34725;SDS011;20951;50.818;4.344;2023-01-04T09:16:18;6.13;;;1.30;;
34725;SDS011;20951;50.818;4.344;2023-01-04T09:18:44;4.38;;;1.13;;
34725;SDS011;20951;50.818;4.344;2023-01-04T09:21:12;4.38;;;1.00;;
34725;SDS011;20951;50.818;4.344;2023-01-04T09:23:39;4.70;;;1.20;;
34725;SDS011;20951;50.818;4.344;2023-01-04T09:26:07;4.80;;;1.00;;
34725;SDS011;20951;50.818;4.344;2023-01-04T09:28:35;62.80;;;43.63;;
34725;SDS011;20951;50.818;4.344;2023-01-04T09:31:05;4.30;;;1.05;;
34725;SDS011;20951;50.818;4.344;2023-01-04T09:33:36;4.38;;;1.17;;
34725;SDS011;20951;50.818;4.344;2023-01-04T09:36:02;4.57;;;1.10;;
34725;SDS011;20951;50.818;4.344;2023-01-04T09:38:30;4.20;;;1.08;;
34725;SDS011;20951;50.818;4.344;2023-01-04T09:41:07;4.85;;;1.30;;
34725;SDS011;20951;50.818;4.344;2023-01-04T09:43:57;5.85;;;1.30;;
34725;SDS011;20951;50.818;4.344;2023-01-04T09:46:52;3.30;;;1.23;;
34725;SDS011;20951;50.818;4.344;2023-01-04T09:49:44;5.10;;;1.27;;
34725;SDS011;20951;50.818;4.344;2023-01-04T09:55:29;7.03;;;1.38;;
34725;SDS011;20951;50.818;4.344;2023-01-04T09:58:04;5.93;;;1.40;;
34725;SDS011;20951;50.818;4.344;2023-01-04T10:00:51;3.50;;;1.00;;
34725;SDS011;20951;50.818;4.344;2023-01-04T10:03:33;5.93;;;1.05;;
34725;SDS011;20951;50.818;4.344;2023-01-04T10:06:01;8.20;;;1.40;;
34725;SDS011;20951;50.818;4.344;2023-01-04T10:08:27;4.70;;;1.10;;
34725;SDS011;20951;50.818;4.344;2023-01-04T10:11:15;8.00;;;1.42;;
34725;SDS011;20951;50.818;4.344;2023-01-04T10:14:00;5.35;;;1.40;;
34725;SDS011;20951;50.818;4.344;2023-01-04T10:19:15;7.68;;;1.40;;
34725;SDS011;20951;50.818;4.344;2023-01-04T10:22:02;6.05;;;1.67;;
34725;SDS011;20951;50.818;4.344;2023-01-04T10:24:43;4.85;;;1.10;;
34725;SDS011;20951;50.818;4.344;2023-01-04T10:27:28;6.15;;;1.30;;
34725;SDS011;20951;50.818;4.344;2023-01-04T10:30:05;4.90;;;1.25;;
34725;SDS011;20951;50.818;4.344;2023-01-04T10:33:15;4.55;;;1.00;;
34725;SDS011;20951;50.818;4.344;2023-01-04T10:35:52;3.83;;;1.02;;
34725;SDS011;20951;50.818;4.344;2023-01-04T10:38:22;4.95;;;1.10;;
34725;SDS011;20951;50.818;4.344;2023-01-04T10:40:54;6.00;;;0.90;;
34725;SDS011;20951;50.818;4.344;2023-01-04T10:43:27;4.10;;;1.05;;
34725;SDS011;20951;50.818;4.344;2023-01-04T10:48:39;2.08;;;0.80;;
34725;SDS011;20951;50.818;4.344;2023-01-04T10:51:10;3.10;;;0.90;;
34725;SDS011;20951;50.818;4.344;2023-01-04T10:53:40;5.05;;;1.23;;
34725;SDS011;20951;50.818;4.344;2023-01-04T10:59:20;5.25;;;1.02;;
34725;SDS011;20951;50.818;4.344;2023-01-04T11:02:51;4.00;;;1.27;;
34725;SDS011;20951;50.818;4.344;2023-01-04T11:05:17;5.13;;;1.05;;
34725;SDS011;20951;50.818;4.344;2023-01-04T11:07:56;4.20;;;1.00;;
34725;SDS011;20951;50.818;4.344;2023-01-04T11:13:16;4.82;;;1.23;;
34725;SDS011;20951;50.818;4.344;2023-01-04T11:15:42;5.03;;;1.13;;
34725;SDS011;20951;50.818;4.344;2023-01-04T11:18:09;4.10;;;1.20;;
34725;SDS011;20951;50.818;4.344;2023-01-04T11:20:38;3.72;;;1.10;;
34725;SDS011;20951;50.818;4.344;2023-01-04T11:25:46;5.18;;;1.80;;
34725;SDS011;20951;50.818;4.344;2023-01-04T11:28:25;5.55;;;1.63;;
34725;SDS011;20951;50.818;4.344;2023-01-04T11:33:56;3.90;;;1.55;;
34725;SDS011;20951;50.818;4.344;2023-01-04T11:38:56;4.85;;;1.70;;
34725;SDS011;20951;50.818;4.344;2023-01-04T11:41:22;6.78;;;2.15;;
34725;SDS011;20951;50.818;4.344;2023-01-04T11:43:58;7.38;;;1.70;;
34725;SDS011;20951;50.818;4.344;2023-01-04T11:46:26;4.03;;;1.65;;
34725;SDS011;20951;50.818;4.344;2023-01-04T11:48:53;5.57;;;1.80;;
34725;SDS011;20951;50.818;4.344;2023-01-04T11:56:28;5.43;;;2.00;;
34725;SDS011;20951;50.818;4.344;2023-01-04T12:01:35;6.90;;;1.85;;
34725;SDS011;20951;50.818;4.344;2023-01-04T12:04:08;11.02;;;2.20;;
34725;SDS011;20951;50.818;4.344;2023-01-04T12:06:50;5.57;;;1.90;;
34725;SDS011;20951;50.818;4.344;2023-01-04T12:09:21;6.90;;;2.20;;
34725;SDS011;20951;50.818;4.344;2023-01-04T12:11:52;7.88;;;2.30;;
34725;SDS011;20951;50.818;4.344;2023-01-04T12:14:29;8.43;;;1.80;;
34725;SDS011;20951;50.818;4.344;2023-01-04T12:19:49;5.47;;;2.10;;
34725;SDS011;20951;50.818;4.344;2023-01-04T12:22:20;7.68;;;2.33;;
34725;SDS011;20951;50.818;4.344;2023-01-04T12:24:59;10.18;;;2.50;;
34725;SDS011;20951;50.818;4.344;2023-01-04T12:27:29;4.53;;;2.22;;
34725;SDS011;20951;50.818;4.344;2023-01-04T12:34:51;4.88;;;2.10;;
34725;SDS011;20951;50.818;4.344;2023-01-04T12:45:51;6.80;;;1.92;;
34725;SDS011;20951;50.818;4.344;2023-01-04T12:57:37;7.18;;;2.40;;
34725;SDS011;20951;50.818;4.344;2023-01-04T13:00:10;5.85;;;2.08;;
34725;SDS011;20951;50.818;4.344;2023-01-04T13:02:46;8.20;;;2.40;;
34725;SDS011;20951;50.818;4.344;2023-01-04T13:05:34;4.60;;;2.03;;
34725;SDS011;20951;50.818;4.344;2023-01-04T13:08:01;4.20;;;1.80;;
34725;SDS011;20951;50.818;4.344;2023-01-04T13:10:35;5.38;;;1.70;;
34725;SDS011;20951;50.818;4.344;2023-01-04T13:13:14;5.38;;;2.00;;
34725;SDS011;20951;50.818;4.344;2023-01-04T13:23:51;6.72;;;1.90;;
34725;SDS011;20951;50.818;4.344;2023-01-04T13:29:11;5.05;;;1.50;;
34725;SDS011;20951;50.818;4.344;2023-01-04T13:31:46;4.10;;;1.50;;
34725;SDS011;20951;50.818;4.344;2023-01-04T13:37:03;4.63;;;1.30;;
34725;SDS011;20951;50.818;4.344;2023-01-04T13:39:32;4.15;;;1.63;;
34725;SDS011;20951;50.818;4.344;2023-01-04T13:42:03;4.05;;;1.33;;
34725;SDS011;20951;50.818;4.344;2023-01-04T13:44:43;4.95;;;1.42;;
34725;SDS011;20951;50.818;4.344;2023-01-04T13:47:42;2.97;;;1.30;;
34725;SDS011;20951;50.818;4.344;2023-01-04T13:50:18;4.80;;;1.27;;
34725;SDS011;20951;50.818;4.344;2023-01-04T13:52:54;3.53;;;1.10;;
34725;SDS011;20951;50.818;4.344;2023-01-04T13:55:24;4.18;;;1.20;;
34725;SDS011;20951;50.818;4.344;2023-01-04T14:00:22;4.75;;;1.00;;
34725;SDS011;20951;50.818;4.344;2023-01-04T14:03:27;3.85;;;1.30;;
34725;SDS011;20951;50.818;4.344;2023-01-04T14:08:49;4.47;;;1.27;;
34725;SDS011;20951;50.818;4.344;2023-01-04T14:11:19;5.18;;;1.40;;
34725;SDS011;20951;50.818;4.344;2023-01-04T14:14:28;4.32;;;1.80;;
34725;SDS011;20951;50.818;4.344;2023-01-04T14:19:51;3.00;;;1.55;;
34725;SDS011;20951;50.818;4.344;2023-01-04T14:22:25;5.15;;;1.98;;
34725;SDS011;20951;50.818;4.344;2023-01-04T14:25:44;4.32;;;1.80;;
34725;SDS011;20951;50.818;4.344;2023-01-04T14:30:49;4.70;;;2.53;;
34725;SDS011;20951;50.818;4.344;2023-01-04T14:33:18;3.72;;;1.58;;
34725;SDS011;20951;50.818;4.344;2023-01-04T14:38:36;5.72;;;2.70;;
34725;SDS011;20951;50.818;4.344;2023-01-04T14:43:42;5.28;;;1.77;;
34725;SDS011;20951;50.818;4.344;2023-01-04T14:46:19;3.47;;;1.40;;
34725;SDS011;20951;50.818;4.344;2023-01-04T14:48:45;6.07;;;3.78;;
34725;SDS011;20951;50.818;4.344;2023-01-04T14:51:12;5.30;;;2.65;;
34725;SDS011;20951;50.818;4.344;2023-01-04T14:53:41;5.28;;;2.08;;
34725;SDS011;20951;50.818;4.344;2023-01-04T14:56:10;5.43;;;1.80;;
34725;SDS011;20951;50.818;4.344;2023-01-04T14:58:37;4.07;;;1.90;;
34725;SDS011;20951;50.818;4.344;2023-01-04T15:01:05;7.28;;;1.70;;
34725;SDS011;20951;50.818;4.344;2023-01-04T15:03:31;6.88;;;2.53;;
34725;SDS011;20951;50.818;4.344;2023-01-04T15:05:56;5.32;;;2.17;;
34725;SDS011;20951;50.818;4.344;2023-01-04T15:08:22;5.80;;;2.13;;
34725;SDS011;20951;50.818;4.344;2023-01-04T15:10:48;5.43;;;2.40;;
34725;SDS011;20951;50.818;4.344;2023-01-04T15:13:14;7.30;;;2.22;;
34725;SDS011;20951;50.818;4.344;2023-01-04T15:15:42;9.85;;;2.47;;
34725;SDS011;20951;50.818;4.344;2023-01-04T15:18:08;9.77;;;2.65;;
34725;SDS011;20951;50.818;4.344;2023-01-04T15:20:37;12.35;;;2.38;;
34725;SDS011;20951;50.818;4.344;2023-01-04T15:23:03;8.05;;;2.20;;
34725;SDS011;20951;50.818;4.344;2023-01-04T15:25:29;14.18;;;3.35;;
34725;SDS011;20951;50.818;4.344;2023-01-04T15:27:55;14.73;;;3.05;;
34725;SDS011;20951;50.818;4.344;2023-01-04T15:30:21;20.13;;;3.30;;
34725;SDS011;20951;50.818;4.344;2023-01-04T15:32:47;18.38;;;3.30;;
34725;SDS011;20951;50.818;4.344;2023-01-04T15:35:13;18.73;;;2.83;;
34725;SDS011;20951;50.818;4.344;2023-01-04T15:37:44;22.65;;;3.28;;
34725;SDS011;20951;50.818;4.344;2023-01-04T15:40:15;21.02;;;3.80;;
34725;SDS011;20951;50.818;4.344;2023-01-04T15:42:42;20.38;;;4.30;;
34725;SDS011;20951;50.818;4.344;2023-01-04T15:45:23;22.38;;;3.97;;
34725;SDS011;20951;50.818;4.344;2023-01-04T15:47:53;22.67;;;4.07;;
34725;SDS011;20951;50.818;4.344;2023-01-04T15:50:27;27.92;;;4.32;;
34725;SDS011;20951;50.818;4.344;2023-01-04T15:53:03;26.05;;;4.75;;
34725;SDS011;20951;50.818;4.344;2023-01-04T15:55:34;25.15;;;3.78;;
34725;SDS011;20951;50.818;4.344;2023-01-04T15:58:00;29.95;;;5.35;;
34725;SDS011;20951;50.818;4.344;2023-01-04T16:00:26;27.60;;;4.57;;
34725;SDS011;20951;50.818;4.344;2023-01-04T16:02:52;25.65;;;5.10;;
34725;SDS011;20951;50.818;4.344;2023-01-04T16:05:18;20.88;;;4.20;;
34725;SDS011;20951;50.818;4.344;2023-01-04T16:07:46;22.98;;;4.32;;
34725;SDS011;20951;50.818;4.344;2023-01-04T16:10:12;29.58;;;5.35;;
34725;SDS011;20951;50.818;4.344;2023-01-04T16:12:39;31.17;;;4.88;;
34725;SDS011;20951;50.818;4.344;2023-01-04T16:15:09;29.10;;;5.38;;
34725;SDS011;20951;50.818;4.344;2023-01-04T16:17:39;34.83;;;6.45;;
34725;SDS011;20951;50.818;4.344;2023-01-04T16:20:06;30.33;;;5.03;;
34725;SDS011;20951;50.818;4.344;2023-01-04T16:22:32;30.35;;;5.65;;
34725;SDS011;20951;50.818;4.344;2023-01-04T16:24:58;25.42;;;5.28;;
34725;SDS011;20951;50.818;4.344;2023-01-04T16:27:24;31.33;;;5.82;;
34725;SDS011;20951;50.818;4.344;2023-01-04T16:29:50;35.78;;;6.18;;
34725;SDS011;20951;50.818;4.344;2023-01-04T16:32:16;32.10;;;5.82;;
34725;SDS011;20951;50.818;4.344;2023-01-04T16:34:42;29.95;;;5.65;;
34725;SDS011;20951;50.818;4.344;2023-01-04T16:37:08;33.53;;;6.25;;
34725;SDS011;20951;50.818;4.344;2023-01-04T16:39:34;31.27;;;5.80;;
34725;SDS011;20951;50.818;4.344;2023-01-04T16:42:00;36.53;;;6.15;;
34725;SDS011;20951;50.818;4.344;2023-01-04T16:44:26;29.27;;;5.30;;
34725;SDS011;20951;50.818;4.344;2023-01-04T16:46:51;34.90;;;6.03;;
34725;SDS011;20951;50.818;4.344;2023-01-04T16:49:17;35.08;;;5.97;;
34725;SDS011;20951;50.818;4.344;2023-01-04T16:51:44;36.53;;;6.03;;
34725;SDS011;20951;50.818;4.344;2023-01-04T16:54:14;34.50;;;6.22;;
34725;SDS011;20951;50.818;4.344;2023-01-04T16:56:41;34.03;;;6.50;;
34725;SDS011;20951;50.818;4.344;2023-01-04T16:59:12;37.15;;;7.25;;
34725;SDS011;20951;50.818;4.344;2023-01-04T17:01:40;30.52;;;6.00;;
34725;SDS011;20951;50.818;4.344;2023-01-04T17:04:06;35.03;;;6.18;;
34725;SDS011;20951;50.818;4.344;2023-01-04T17:06:37;31.25;;;6.30;;
34725;SDS011;20951;50.818;4.344;2023-01-04T17:09:04;41.72;;;7.15;;
34725;SDS011;20951;50.818;4.344;2023-01-04T17:11:33;39.20;;;6.72;;
34725;SDS011;20951;50.818;4.344;2023-01-04T17:14:00;40.83;;;6.55;;
34725;SDS011;20951;50.818;4.344;2023-01-04T17:16:29;34.55;;;6.75;;